Zenia, California
Current Conditions -  °F | °C
As of 11:15 AM on Friday 28 Nov 2014 (Local Time) from KFOT Reporting Station
Overcast Overcast  
Wind Chill: 57°   Ceiling: 3000
Heat Index: 57°   Visibility: 10mi
Dew Point: 54°   Wind: 20mph
Humidity: 88%   Direction: 120°ESE
Pressure: 29.88"   Gusts: 28mph
Location:  40.21°N, 123.49°W
Report Text: KFOT 281915Z AUTO 12017G24KT 10SM OVC030 14/12 A2988 RMK AO1
Loading
Personal Weather Stations






























Interactive Weather Map New forecast layout! Learn more

10-Day Weather Forecast

Advertisements
Track Severe Weather on mobile